sensor_id;sensor_type;location;lat;lon;timestamp;pressure;altitude;pressure_sealevel;temperature;humidity
10806;BME280;5455;53.224;6.000;2023-05-11T00:02:01;101507.56;;;11.78;100.00
10806;BME280;5455;53.224;6.000;2023-05-11T00:04:28;101506.88;;;11.69;100.00
10806;BME280;5455;53.224;6.000;2023-05-11T00:06:55;101514.16;;;11.73;100.00
10806;BME280;5455;53.224;6.000;2023-05-11T00:09:22;101509.63;;;11.81;100.00
10806;BME280;5455;53.224;6.000;2023-05-11T00:11:51;101512.50;;;11.84;100.00
10806;BME280;5455;53.224;6.000;2023-05-11T00:14:18;101517.31;;;11.87;100.00
10806;BME280;5455;53.224;6.000;2023-05-11T00:16:45;101505.81;;;11.85;100.00
10806;BME280;5455;53.224;6.000;2023-05-11T00:19:12;101513.56;;;11.80;100.00
10806;BME280;5455;53.224;6.000;2023-05-11T00:21:39;101503.22;;;11.77;100.00
10806;BME280;5455;53.224;6.000;2023-05-11T00:24:07;101503.22;;;11.77;100.00
10806;BME280;5455;53.224;6.000;2023-05-11T00:26:34;101495.47;;;11.82;100.00
10806;BME280;5455;53.224;6.000;2023-05-11T00:29:01;101491.91;;;11.82;100.00
10806;BME280;5455;53.224;6.000;2023-05-11T00:31:28;101490.88;;;11.86;100.00
10806;BME280;5455;53.224;6.000;2023-05-11T00:33:56;101498.13;;;11.79;100.00
10806;BME280;5455;53.224;6.000;2023-05-11T00:36:24;101491.25;;;11.73;100.00
10806;BME280;5455;53.224;6.000;2023-05-11T00:38:51;101486.63;;;11.77;100.00
10806;BME280;5455;53.224;6.000;2023-05-11T00:41:18;101490.81;;;11.71;100.00
10806;BME280;5455;53.224;6.000;2023-05-11T00:43:45;101487.53;;;11.69;100.00
10806;BME280;5455;53.224;6.000;2023-05-11T00:46:12;101495.28;;;11.63;100.00
10806;BME280;5455;53.224;6.000;2023-05-11T00:48:39;101493.56;;;11.58;100.00
10806;BME280;5455;53.224;6.000;2023-05-11T00:51:06;101487.91;;;11.67;100.00
10806;BME280;5455;53.224;6.000;2023-05-11T00:53:33;101493.19;;;11.72;100.00
10806;BME280;5455;53.224;6.000;2023-05-11T00:56:00;101486.97;;;11.63;100.00
10806;BME280;5455;53.224;6.000;2023-05-11T00:58:27;101492.22;;;11.52;100.00
10806;BME280;5455;53.224;6.000;2023-05-11T01:00:54;101495.31;;;11.51;100.00
10806;BME280;5455;53.224;6.000;2023-05-11T01:03:22;101494.41;;;11.47;100.00
10806;BME280;5455;53.224;6.000;2023-05-11T01:08:27;101494.88;;;11.49;100.00
10806;BME280;5455;53.224;6.000;2023-05-11T01:13:59;101497.75;;;11.52;100.00
10806;BME280;5455;53.224;6.000;2023-05-11T01:16:31;101504.78;;;11.38;100.00
10806;BME280;5455;53.224;6.000;2023-05-11T01:19:09;101504.13;;;11.29;100.00
10806;BME280;5455;53.224;6.000;2023-05-11T01:21:38;101490.78;;;11.19;100.00
10806;BME280;5455;53.224;6.000;2023-05-11T01:24:28;101494.22;;;11.28;100.00
10806;BME280;5455;53.224;6.000;2023-05-11T01:30:26;101505.50;;;11.35;100.00
10806;BME280;5455;53.224;6.000;2023-05-11T01:32:58;101509.38;;;11.34;100.00
10806;BME280;5455;53.224;6.000;2023-05-11T01:35:32;101503.97;;;11.37;100.00
10806;BME280;5455;53.224;6.000;2023-05-11T01:38:03;101502.25;;;11.33;100.00
10806;BME280;5455;53.224;6.000;2023-05-11T01:40:34;101498.72;;;11.32;100.00
10806;BME280;5455;53.224;6.000;2023-05-11T01:43:19;101502.16;;;11.29;100.00
10806;BME280;5455;53.224;6.000;2023-05-11T01:45:48;101503.75;;;11.30;100.00
10806;BME280;5455;53.224;6.000;2023-05-11T01:48:19;101499.50;;;11.33;100.00
10806;BME280;5455;53.224;6.000;2023-05-11T01:50:49;101505.00;;;11.33;100.00
10806;BME280;5455;53.224;6.000;2023-05-11T01:53:17;101507.69;;;11.29;100.00
10806;BME280;5455;53.224;6.000;2023-05-11T01:55:46;101499.19;;;11.22;100.00
10806;BME280;5455;53.224;6.000;2023-05-11T01:58:16;101501.50;;;11.20;100.00
10806;BME280;5455;53.224;6.000;2023-05-11T02:00:45;101500.31;;;11.21;100.00
10806;BME280;5455;53.224;6.000;2023-05-11T02:03:14;101499.50;;;11.21;100.00
10806;BME280;5455;53.224;6.000;2023-05-11T02:05:43;101506.19;;;11.20;100.00
10806;BME280;5455;53.224;6.000;2023-05-11T02:08:14;101514.47;;;11.20;100.00
10806;BME280;5455;53.224;6.000;2023-05-11T02:10:42;101514.94;;;11.22;100.00
10806;BME280;5455;53.224;6.000;2023-05-11T02:13:12;101518.84;;;11.21;100.00
10806;BME280;5455;53.224;6.000;2023-05-11T02:15:41;101512.19;;;10.97;100.00
10806;BME280;5455;53.224;6.000;2023-05-11T02:18:12;101511.03;;;10.98;100.00
10806;BME280;5455;53.224;6.000;2023-05-11T02:20:42;101514.00;;;11.05;100.00
10806;BME280;5455;53.224;6.000;2023-05-11T02:23:11;101513.22;;;11.05;100.00
10806;BME280;5455;53.224;6.000;2023-05-11T02:25:39;101506.09;;;11.04;100.00
10806;BME280;5455;53.224;6.000;2023-05-11T02:28:07;101512.06;;;11.06;100.00
10806;BME280;5455;53.224;6.000;2023-05-11T02:30:43;101515.50;;;10.91;100.00
10806;BME280;5455;53.224;6.000;2023-05-11T02:33:24;101520.34;;;10.94;100.00
10806;BME280;5455;53.224;6.000;2023-05-11T02:35:54;101509.66;;;11.04;100.00
10806;BME280;5455;53.224;6.000;2023-05-11T02:38:30;101516.56;;;11.11;100.00
10806;BME280;5455;53.224;6.000;2023-05-11T02:41:03;101522.19;;;11.14;100.00
10806;BME280;5455;53.224;6.000;2023-05-11T02:43:35;101514.69;;;11.15;100.00
10806;BME280;5455;53.224;6.000;2023-05-11T02:46:06;101515.06;;;11.13;100.00
10806;BME280;5455;53.224;6.000;2023-05-11T02:48:41;101510.69;;;11.00;100.00
10806;BME280;5455;53.224;6.000;2023-05-11T02:51:13;101514.94;;;10.85;100.00
10806;BME280;5455;53.224;6.000;2023-05-11T02:53:45;101523.78;;;10.91;100.00
10806;BME280;5455;53.224;6.000;2023-05-11T02:56:15;101527.72;;;11.02;100.00
10806;BME280;5455;53.224;6.000;2023-05-11T02:58:42;101533.44;;;11.09;100.00
10806;BME280;5455;53.224;6.000;2023-05-11T03:01:18;101523.09;;;11.06;100.00
10806;BME280;5455;53.224;6.000;2023-05-11T03:03:46;101524.84;;;10.98;100.00
10806;BME280;5455;53.224;6.000;2023-05-11T03:06:14;101522.78;;;10.95;100.00
10806;BME280;5455;53.224;6.000;2023-05-11T03:08:41;101524.84;;;10.98;100.00
10806;BME280;5455;53.224;6.000;2023-05-11T03:11:09;101516.69;;;10.90;100.00
10806;BME280;5455;53.224;6.000;2023-05-11T03:13:38;101520.69;;;10.80;100.00
10806;BME280;5455;53.224;6.000;2023-05-11T03:16:06;101520.56;;;10.77;100.00
10806;BME280;5455;53.224;6.000;2023-05-11T03:18:35;101520.94;;;10.75;100.00
10806;BME280;5455;53.224;6.000;2023-05-11T03:21:03;101526.66;;;10.82;100.00
10806;BME280;5455;53.224;6.000;2023-05-11T03:23:34;101524.16;;;10.89;100.00
10806;BME280;5455;53.224;6.000;2023-05-11T03:26:02;101524.59;;;10.79;100.00
10806;BME280;5455;53.224;6.000;2023-05-11T03:28:30;101513.56;;;10.79;100.00
10806;BME280;5455;53.224;6.000;2023-05-11T03:31:03;101512.53;;;10.84;100.00
10806;BME280;5455;53.224;6.000;2023-05-11T03:33:31;101516.19;;;10.88;100.00
10806;BME280;5455;53.224;6.000;2023-05-11T03:36:01;101518.19;;;10.87;100.00
10806;BME280;5455;53.224;6.000;2023-05-11T03:38:31;101511.72;;;10.83;100.00
10806;BME280;5455;53.224;6.000;2023-05-11T03:40:59;101523.09;;;10.82;100.00
10806;BME280;5455;53.224;6.000;2023-05-11T03:43:31;101520.47;;;10.85;100.00
10806;BME280;5455;53.224;6.000;2023-05-11T03:45:59;101517.25;;;10.83;100.00
10806;BME280;5455;53.224;6.000;2023-05-11T03:48:27;101520.00;;;10.83;100.00
10806;BME280;5455;53.224;6.000;2023-05-11T03:50:54;101520.13;;;10.87;100.00
10806;BME280;5455;53.224;6.000;2023-05-11T03:53:22;101518.19;;;10.87;100.00
10806;BME280;5455;53.224;6.000;2023-05-11T03:55:49;101531.63;;;10.89;100.00
10806;BME280;5455;53.224;6.000;2023-05-11T03:58:18;101525.41;;;10.80;100.00
10806;BME280;5455;53.224;6.000;2023-05-11T04:00:47;101527.22;;;10.76;100.00
10806;BME280;5455;53.224;6.000;2023-05-11T04:03:14;101530.00;;;10.76;100.00
10806;BME280;5455;53.224;6.000;2023-05-11T04:05:41;101529.31;;;10.79;100.00
10806;BME280;5455;53.224;6.000;2023-05-11T04:08:11;101529.09;;;10.84;100.00
10806;BME280;5455;53.224;6.000;2023-05-11T04:10:38;101528.28;;;10.83;100.00
10806;BME280;5455;53.224;6.000;2023-05-11T04:13:05;101534.63;;;10.84;100.00
10806;BME280;5455;53.224;6.000;2023-05-11T04:15:32;101528.84;;;10.89;100.00
10806;BME280;5455;53.224;6.000;2023-05-11T04:18:02;101541.28;;;10.95;100.00
10806;BME280;5455;53.224;6.000;2023-05-11T04:20:30;101539.66;;;11.06;100.00
10806;BME280;5455;53.224;6.000;2023-05-11T04:22:58;101545.41;;;11.13;100.00
10806;BME280;5455;53.224;6.000;2023-05-11T04:25:25;101547.13;;;11.05;100.00
10806;BME280;5455;53.224;6.000;2023-05-11T04:27:53;101551.19;;;11.08;100.00
10806;BME280;5455;53.224;6.000;2023-05-11T04:30:20;101546.66;;;10.91;100.00
10806;BME280;5455;53.224;6.000;2023-05-11T04:32:47;101543.00;;;10.87;100.00
10806;BME280;5455;53.224;6.000;2023-05-11T04:35:14;101540.59;;;10.98;100.00
10806;BME280;5455;53.224;6.000;2023-05-11T04:37:41;101531.63;;;11.01;100.00
10806;BME280;5455;53.224;6.000;2023-05-11T04:40:09;101547.03;;;11.02;100.00
10806;BME280;5455;53.224;6.000;2023-05-11T04:42:39;101549.22;;;10.96;100.00
10806;BME280;5455;53.224;6.000;2023-05-11T04:45:11;101553.56;;;10.97;100.00
10806;BME280;5455;53.224;6.000;2023-05-11T04:47:38;101558.84;;;11.02;100.00
10806;BME280;5455;53.224;6.000;2023-05-11T04:50:06;101549.69;;;11.11;100.00
10806;BME280;5455;53.224;6.000;2023-05-11T04:52:34;101555.06;;;11.19;100.00
10806;BME280;5455;53.224;6.000;2023-05-11T04:55:02;101547.94;;;11.30;100.00
10806;BME280;5455;53.224;6.000;2023-05-11T04:57:29;101552.06;;;11.24;100.00
10806;BME280;5455;53.224;6.000;2023-05-11T04:59:57;101556.34;;;11.22;100.00
10806;BME280;5455;53.224;6.000;2023-05-11T05:02:24;101553.25;;;10.99;100.00
10806;BME280;5455;53.224;6.000;2023-05-11T05:04:51;101559.09;;;11.10;100.00
10806;BME280;5455;53.224;6.000;2023-05-11T05:07:19;101558.84;;;11.15;100.00
10806;BME280;5455;53.224;6.000;2023-05-11T05:09:46;101556.34;;;11.10;100.00
10806;BME280;5455;53.224;6.000;2023-05-11T05:12:14;101550.94;;;11.01;100.00
10806;BME280;5455;53.224;6.000;2023-05-11T05:14:41;101558.84;;;11.02;100.00
10806;BME280;5455;53.224;6.000;2023-05-11T05:17:08;101565.41;;;10.98;100.00
10806;BME280;5455;53.224;6.000;2023-05-11T05:19:36;101566.25;;;11.11;100.00
10806;BME280;5455;53.224;6.000;2023-05-11T05:22:04;101569.22;;;11.18;100.00
10806;BME280;5455;53.224;6.000;2023-05-11T05:24:31;101564.63;;;11.22;100.00
10806;BME280;5455;53.224;6.000;2023-05-11T05:26:59;101567.13;;;11.15;100.00
10806;BME280;5455;53.224;6.000;2023-05-11T05:29:26;101567.63;;;11.17;100.00
10806;BME280;5455;53.224;6.000;2023-05-11T05:31:54;101574.28;;;11.40;100.00
10806;BME280;5455;53.224;6.000;2023-05-11T05:34:22;101568.72;;;11.52;100.00
10806;BME280;5455;53.224;6.000;2023-05-11T05:36:50;101574.13;;;11.60;100.00
10806;BME280;5455;53.224;6.000;2023-05-11T05:39:17;101589.91;;;11.48;100.00
10806;BME280;5455;53.224;6.000;2023-05-11T05:41:44;101582.56;;;11.40;100.00
10806;BME280;5455;53.224;6.000;2023-05-11T05:44:11;101585.00;;;11.29;100.00
10806;BME280;5455;53.224;6.000;2023-05-11T05:46:38;101583.47;;;11.44;100.00
10806;BME280;5455;53.224;6.000;2023-05-11T05:49:06;101594.28;;;11.73;100.00
10806;BME280;5455;53.224;6.000;2023-05-11T05:51:33;101601.63;;;11.81;100.00
10806;BME280;5455;53.224;6.000;2023-05-11T05:54:01;101612.53;;;11.90;100.00
10806;BME280;5455;53.224;6.000;2023-05-11T05:56:29;101617.69;;;12.03;100.00
10806;BME280;5455;53.224;6.000;2023-05-11T05:58:57;101607.22;;;11.97;100.00
10806;BME280;5455;53.224;6.000;2023-05-11T06:01:25;101616.28;;;12.09;100.00
10806;BME280;5455;53.224;6.000;2023-05-11T06:03:52;101617.41;;;12.21;100.00
10806;BME280;5455;53.224;6.000;2023-05-11T06:06:21;101622.69;;;12.26;100.00
10806;BME280;5455;53.224;6.000;2023-05-11T06:08:48;101619.19;;;12.29;100.00
10806;BME280;5455;53.224;6.000;2023-05-11T06:11:15;101619.03;;;12.49;100.00
10806;BME280;5455;53.224;6.000;2023-05-11T06:13:42;101629.41;;;12.68;100.00
10806;BME280;5455;53.224;6.000;2023-05-11T06:16:10;101628.69;;;12.71;100.00
10806;BME280;5455;53.224;6.000;2023-05-11T06:18:37;101620.50;;;12.75;100.00
10806;BME280;5455;53.224;6.000;2023-05-11T06:21:06;101627.34;;;12.65;100.00
10806;BME280;5455;53.224;6.000;2023-05-11T06:23:33;101627.63;;;12.76;100.00
10806;BME280;5455;53.224;6.000;2023-05-11T06:26:00;101636.66;;;12.73;100.00
10806;BME280;5455;53.224;6.000;2023-05-11T06:28:30;101624.72;;;12.84;100.00
10806;BME280;5455;53.224;6.000;2023-05-11T06:31:02;101633.44;;;12.86;100.00
10806;BME280;5455;53.224;6.000;2023-05-11T06:33:33;101628.81;;;12.90;100.00
10806;BME280;5455;53.224;6.000;2023-05-11T06:36:05;101632.63;;;12.70;100.00
10806;BME280;5455;53.224;6.000;2023-05-11T06:38:34;101633.69;;;12.65;100.00
10806;BME280;5455;53.224;6.000;2023-05-11T06:41:01;101637.34;;;12.69;100.00
10806;BME280;5455;53.224;6.000;2023-05-11T06:43:29;101639.38;;;13.00;100.00
10806;BME280;5455;53.224;6.000;2023-05-11T06:46:00;101637.03;;;13.02;100.00
10806;BME280;5455;53.224;6.000;2023-05-11T06:48:27;101638.63;;;13.15;100.00
10806;BME280;5455;53.224;6.000;2023-05-11T06:50:57;101638.06;;;13.25;100.00
10806;BME280;5455;53.224;6.000;2023-05-11T06:53:24;101635.97;;;13.07;100.00
10806;BME280;5455;53.224;6.000;2023-05-11T06:55:53;101633.59;;;13.37;100.00
10806;BME280;5455;53.224;6.000;2023-05-11T06:58:20;101635.16;;;13.69;100.00
10806;BME280;5455;53.224;6.000;2023-05-11T07:00:48;101644.63;;;13.68;100.00
10806;BME280;5455;53.224;6.000;2023-05-11T07:03:15;101638.84;;;13.57;100.00
10806;BME280;5455;53.224;6.000;2023-05-11T07:05:43;101638.38;;;13.55;100.00
10806;BME280;5455;53.224;6.000;2023-05-11T07:08:10;101641.25;;;13.59;100.00
10806;BME280;5455;53.224;6.000;2023-05-11T07:10:37;101640.19;;;13.48;100.00
10806;BME280;5455;53.224;6.000;2023-05-11T07:13:04;101653.34;;;13.51;100.00
10806;BME280;5455;53.224;6.000;2023-05-11T07:15:31;101651.47;;;13.55;100.00
10806;BME280;5455;53.224;6.000;2023-05-11T07:17:58;101653.69;;;13.49;100.00
10806;BME280;5455;53.224;6.000;2023-05-11T07:20:27;101649.56;;;13.43;100.00
10806;BME280;5455;53.224;6.000;2023-05-11T07:22:57;101650.00;;;13.61;100.00
10806;BME280;5455;53.224;6.000;2023-05-11T07:25:25;101651.41;;;13.70;100.00
10806;BME280;5455;53.224;6.000;2023-05-11T07:27:51;101653.47;;;13.58;100.00
10806;BME280;5455;53.224;6.000;2023-05-11T07:30:18;101649.94;;;13.57;100.00
10806;BME280;5455;53.224;6.000;2023-05-11T07:32:46;101645.53;;;13.72;100.00
10806;BME280;5455;53.224;6.000;2023-05-11T07:35:13;101647.06;;;13.89;100.00
10806;BME280;5455;53.224;6.000;2023-05-11T07:37:43;101648.41;;;13.95;100.00
10806;BME280;5455;53.224;6.000;2023-05-11T07:40:11;101652.63;;;13.89;100.00
10806;BME280;5455;53.224;6.000;2023-05-11T07:42:38;101637.91;;;13.85;100.00
10806;BME280;5455;53.224;6.000;2023-05-11T07:45:05;101640.25;;;14.02;100.00
10806;BME280;5455;53.224;6.000;2023-05-11T07:47:32;101657.69;;;14.02;100.00
10806;BME280;5455;53.224;6.000;2023-05-11T07:50:02;101657.41;;;14.07;100.00
10806;BME280;5455;53.224;6.000;2023-05-11T07:52:30;101652.75;;;14.11;100.00
10806;BME280;5455;53.224;6.000;2023-05-11T07:54:57;101653.28;;;14.36;100.00
10806;BME280;5455;53.224;6.000;2023-05-11T07:57:24;101661.28;;;14.57;100.00
10806;BME280;5455;53.224;6.000;2023-05-11T07:59:51;101659.41;;;14.64;100.00
10806;BME280;5455;53.224;6.000;2023-05-11T08:02:18;101667.91;;;14.71;100.00
10806;BME280;5455;53.224;6.000;2023-05-11T08:04:45;101674.59;;;14.70;100.00
10806;BME280;5455;53.224;6.000;2023-05-11T08:07:12;101671.91;;;14.55;100.00
10806;BME280;5455;53.224;6.000;2023-05-11T08:09:39;101668.41;;;14.58;100.00
10806;BME280;5455;53.224;6.000;2023-05-11T08:12:06;101667.09;;;14.52;100.00
10806;BME280;5455;53.224;6.000;2023-05-11T08:14:33;101681.13;;;14.40;100.00
10806;BME280;5455;53.224;6.000;2023-05-11T08:17:00;101685.00;;;14.35;100.00
10806;BME280;5455;53.224;6.000;2023-05-11T08:19:27;101674.84;;;14.27;100.00
10806;BME280;5455;53.224;6.000;2023-05-11T08:21:54;101683.59;;;14.10;100.00
10806;BME280;5455;53.224;6.000;2023-05-11T08:24:21;101679.59;;;14.07;100.00
10806;BME280;5455;53.224;6.000;2023-05-11T08:26:48;101671.78;;;13.94;100.00
10806;BME280;5455;53.224;6.000;2023-05-11T08:29:17;101681.59;;;13.91;100.00
10806;BME280;5455;53.224;6.000;2023-05-11T08:31:43;101679.09;;;13.86;100.00
10806;BME280;5455;53.224;6.000;2023-05-11T08:34:11;101683.81;;;14.01;100.00
10806;BME280;5455;53.224;6.000;2023-05-11T08:36:46;101684.00;;;14.27;100.00
10806;BME280;5455;53.224;6.000;2023-05-11T08:39:13;101688.13;;;14.33;100.00
10806;BME280;5455;53.224;6.000;2023-05-11T08:42:01;101685.94;;;14.08;100.00
10806;BME280;5455;53.224;6.000;2023-05-11T08:44:29;101687.19;;;14.10;100.00
10806;BME280;5455;53.224;6.000;2023-05-11T08:46:58;101690.78;;;14.11;100.00
10806;BME280;5455;53.224;6.000;2023-05-11T08:49:46;101692.53;;;14.19;100.00
10806;BME280;5455;53.224;6.000;2023-05-11T08:52:15;101689.19;;;14.29;100.00
10806;BME280;5455;53.224;6.000;2023-05-11T08:54:44;101691.16;;;14.28;100.00
10806;BME280;5455;53.224;6.000;2023-05-11T08:57:13;101701.00;;;14.42;100.00
10806;BME280;5455;53.224;6.000;2023-05-11T08:59:42;101686.41;;;14.45;100.00
10806;BME280;5455;53.224;6.000;2023-05-11T09:02:14;101684.06;;;14.66;100.00
10806;BME280;5455;53.224;6.000;2023-05-11T09:04:43;101688.47;;;14.89;100.00
10806;BME280;5455;53.224;6.000;2023-05-11T09:07:15;101692.56;;;14.96;100.00
10806;BME280;5455;53.224;6.000;2023-05-11T09:09:44;101688.00;;;15.07;100.00
10806;BME280;5455;53.224;6.000;2023-05-11T09:12:12;101690.34;;;15.05;100.00
10806;BME280;5455;53.224;6.000;2023-05-11T09:14:39;101698.00;;;15.11;100.00
10806;BME280;5455;53.224;6.000;2023-05-11T09:17:06;101694.13;;;15.16;100.00
10806;BME280;5455;53.224;6.000;2023-05-11T09:19:34;101690.03;;;15.10;100.00
10806;BME280;5455;53.224;6.000;2023-05-11T09:22:01;101685.34;;;15.36;100.00
10806;BME280;5455;53.224;6.000;2023-05-11T09:24:31;101688.03;;;15.52;100.00
10806;BME280;5455;53.224;6.000;2023-05-11T09:27:06;101689.84;;;15.44;100.00
10806;BME280;5455;53.224;6.000;2023-05-11T09:29:33;101685.41;;;15.17;100.00
10806;BME280;5455;53.224;6.000;2023-05-11T09:32:00;101679.94;;;15.43;100.00
10806;BME280;5455;53.224;6.000;2023-05-11T09:34:27;101679.19;;;15.47;100.00
10806;BME280;5455;53.224;6.000;2023-05-11T09:36:55;101681.22;;;15.72;100.00
10806;BME280;5455;53.224;6.000;2023-05-11T09:39:34;101681.69;;;15.78;100.00
10806;BME280;5455;53.224;6.000;2023-05-11T09:42:17;101687.91;;;15.94;100.00
10806;BME280;5455;53.224;6.000;2023-05-11T09:44:45;101679.34;;;15.80;100.00
10806;BME280;5455;53.224;6.000;2023-05-11T09:47:18;101675.38;;;15.81;100.00
10806;BME280;5455;53.224;6.000;2023-05-11T09:49:46;101679.16;;;15.95;100.00
10806;BME280;5455;53.224;6.000;2023-05-11T09:52:15;101683.47;;;16.19;100.00
10806;BME280;5455;53.224;6.000;2023-05-11T09:54:47;101676.13;;;16.64;100.00
10806;BME280;5455;53.224;6.000;2023-05-11T09:57:28;101677.72;;;16.65;100.00
10806;BME280;5455;53.224;6.000;2023-05-11T09:59:57;101687.84;;;16.80;100.00
10806;BME280;5455;53.224;6.000;2023-05-11T10:02:25;101681.59;;;16.90;100.00
10806;BME280;5455;53.224;6.000;2023-05-11T10:04:55;101682.41;;;16.90;100.00
10806;BME280;5455;53.224;6.000;2023-05-11T10:09:53;101682.66;;;16.78;100.00
10806;BME280;5455;53.224;6.000;2023-05-11T10:12:22;101682.00;;;16.92;100.00
10806;BME280;5455;53.224;6.000;2023-05-11T10:14:55;101692.78;;;17.34;100.00
10806;BME280;5455;53.224;6.000;2023-05-11T10:17:24;101690.50;;;17.94;100.00
10806;BME280;5455;53.224;6.000;2023-05-11T10:19:54;101684.25;;;18.11;100.00
10806;BME280;5455;53.224;6.000;2023-05-11T10:22:27;101679.41;;;18.04;100.00
10806;BME280;5455;53.224;6.000;2023-05-11T10:24:57;101680.63;;;18.07;100.00
10806;BME280;5455;53.224;6.000;2023-05-11T10:27:25;101683.13;;;18.26;100.00
10806;BME280;5455;53.224;6.000;2023-05-11T10:29:52;101688.56;;;18.01;100.00
10806;BME280;5455;53.224;6.000;2023-05-11T10:32:19;101686.16;;;18.00;100.00
10806;BME280;5455;53.224;6.000;2023-05-11T10:34:47;101686.66;;;18.16;100.00
10806;BME280;5455;53.224;6.000;2023-05-11T10:37:16;101673.44;;;18.09;100.00
10806;BME280;5455;53.224;6.000;2023-05-11T10:39:45;101676.56;;;17.97;100.00
10806;BME280;5455;53.224;6.000;2023-05-11T10:47:44;101685.16;;;18.36;100.00
10806;BME280;5455;53.224;6.000;2023-05-11T10:53:14;101689.78;;;18.94;100.00
10806;BME280;5455;53.224;6.000;2023-05-11T10:56:12;101691.84;;;19.21;100.00
10806;BME280;5455;53.224;6.000;2023-05-11T10:59:28;101691.84;;;19.07;100.00
10806;BME280;5455;53.224;6.000;2023-05-11T11:01:50;101697.78;;;18.92;100.00
10806;BME280;5455;53.224;6.000;2023-05-11T11:04:20;101703.41;;;19.09;100.00
10806;BME280;5455;53.224;6.000;2023-05-11T11:07:03;101703.03;;;19.21;100.00
10806;BME280;5455;53.224;6.000;2023-05-11T11:09:50;101698.56;;;18.89;100.00
10806;BME280;5455;53.224;6.000;2023-05-11T11:12:18;101694.97;;;18.99;100.00
10806;BME280;5455;53.224;6.000;2023-05-11T11:14:57;101701.38;;;18.92;100.00
10806;BME280;5455;53.224;6.000;2023-05-11T11:17:27;101700.50;;;18.70;100.00
10806;BME280;5455;53.224;6.000;2023-05-11T11:19:58;101706.53;;;18.87;100.00
10806;BME280;5455;53.224;6.000;2023-05-11T11:25:01;101701.38;;;18.89;100.00
10806;BME280;5455;53.224;6.000;2023-05-11T11:30:18;101699.34;;;18.86;100.00
10806;BME280;5455;53.224;6.000;2023-05-11T11:32:50;101703.41;;;19.13;100.00
10806;BME280;5455;53.224;6.000;2023-05-11T11:38:13;101693.75;;;18.82;100.00
10806;BME280;5455;53.224;6.000;2023-05-11T11:40:45;101703.38;;;18.92;100.00
10806;BME280;5455;53.224;6.000;2023-05-11T11:43:22;101702.56;;;19.02;100.00
10806;BME280;5455;53.224;6.000;2023-05-11T11:46:01;101705.44;;;19.30;100.00
10806;BME280;5455;53.224;6.000;2023-05-11T11:56:03;101704.25;;;19.31;100.00
10806;BME280;5455;53.224;6.000;2023-05-11T12:01:14;101712.66;;;19.88;100.00
10806;BME280;5455;53.224;6.000;2023-05-11T12:03:43;101715.06;;;19.57;100.00
10806;BME280;5455;53.224;6.000;2023-05-11T12:06:11;101712.22;;;19.25;100.00
10806;BME280;5455;53.224;6.000;2023-05-11T12:08:40;101717.03;;;19.25;100.00
10806;BME280;5455;53.224;6.000;2023-05-11T12:11:08;101714.25;;;19.50;100.00
10806;BME280;5455;53.224;6.000;2023-05-11T12:13:35;101711.47;;;19.74;100.00
10806;BME280;5455;53.224;6.000;2023-05-11T12:16:13;101710.28;;;19.40;100.00
10806;BME280;5455;53.224;6.000;2023-05-11T12:18:50;101714.59;;;19.20;100.00
10806;BME280;5455;53.224;6.000;2023-05-11T12:21:18;101707.75;;;18.89;100.00
10806;BME280;5455;53.224;6.000;2023-05-11T12:23:56;101713.78;;;19.05;100.00
10806;BME280;5455;53.224;6.000;2023-05-11T12:26:25;101718.59;;;19.12;100.00
10806;BME280;5455;53.224;6.000;2023-05-11T12:29:09;101716.13;;;18.93;100.00
10806;BME280;5455;53.224;6.000;2023-05-11T12:31:38;101713.81;;;19.19;100.00
10806;BME280;5455;53.224;6.000;2023-05-11T12:34:06;101712.97;;;19.05;100.00
10806;BME280;5455;53.224;6.000;2023-05-11T12:36:39;101718.59;;;19.12;100.00
10806;BME280;5455;53.224;6.000;2023-05-11T12:39:06;101714.63;;;19.34;100.00
10806;BME280;5455;53.224;6.000;2023-05-11T12:41:33;101726.09;;;18.90;100.00
10806;BME280;5455;53.224;6.000;2023-05-11T12:44:00;101719.97;;;18.49;100.00
10806;BME280;5455;53.224;6.000;2023-05-11T12:46:27;101702.06;;;18.61;100.00
10806;BME280;5455;53.224;6.000;2023-05-11T12:48:54;101710.84;;;18.66;100.00
10806;BME280;5455;53.224;6.000;2023-05-11T12:54:36;101714.63;;;18.23;100.00
10806;BME280;5455;53.224;6.000;2023-05-11T12:57:05;101709.88;;;18.31;100.00
10806;BME280;5455;53.224;6.000;2023-05-11T12:59:37;101713.72;;;18.88;100.00
10806;BME280;5455;53.224;6.000;2023-05-11T13:02:10;101709.06;;;19.45;100.00
10806;BME280;5455;53.224;6.000;2023-05-11T13:04:39;101712.63;;;19.38;100.00
10806;BME280;5455;53.224;6.000;2023-05-11T13:07:07;101717.88;;;19.61;100.00
10806;BME280;5455;53.224;6.000;2023-05-11T13:09:34;101712.22;;;20.10;100.00
10806;BME280;5455;53.224;6.000;2023-05-11T13:14:46;101717.78;;;19.11;100.00
10806;BME280;5455;53.224;6.000;2023-05-11T13:17:28;101718.09;;;18.82;100.00
10806;BME280;5455;53.224;6.000;2023-05-11T13:19:56;101719.31;;;18.84;99.91
10806;BME280;5455;53.224;6.000;2023-05-11T13:22:23;101720.50;;;18.83;100.00
10806;BME280;5455;53.224;6.000;2023-05-11T13:25:01;101720.63;;;19.36;98.48
10806;BME280;5455;53.224;6.000;2023-05-11T13:27:28;101714.66;;;19.84;95.93
10806;BME280;5455;53.224;6.000;2023-05-11T13:29:55;101721.88;;;19.85;96.26
10806;BME280;5455;53.224;6.000;2023-05-11T13:32:22;101715.06;;;19.50;93.61
10806;BME280;5455;53.224;6.000;2023-05-11T13:34:49;101712.59;;;19.06;99.04
10806;BME280;5455;53.224;6.000;2023-05-11T13:37:16;101705.38;;;19.02;100.00
10806;BME280;5455;53.224;6.000;2023-05-11T13:39:43;101707.41;;;19.01;100.00
10806;BME280;5455;53.224;6.000;2023-05-11T13:42:11;101702.63;;;19.23;98.70
10806;BME280;5455;53.224;6.000;2023-05-11T13:44:38;101706.19;;;19.09;97.03
10806;BME280;5455;53.224;6.000;2023-05-11T13:47:05;101702.63;;;19.30;97.33